sensor_id;sensor_type;location;lat;lon;timestamp;P1;durP1;ratioP1;P2;durP2;ratioP2
50976;SDS011;36992;48.200;12.418;2024-03-29T00:00:07;2.05;;;0.50;;
50976;SDS011;36992;48.200;12.418;2024-03-29T00:02:33;2.95;;;0.80;;
50976;SDS011;36992;48.200;12.418;2024-03-29T00:04:59;2.13;;;0.63;;
50976;SDS011;36992;48.200;12.418;2024-03-29T00:07:26;2.45;;;1.00;;
50976;SDS011;36992;48.200;12.418;2024-03-29T00:09:51;2.47;;;1.05;;
50976;SDS011;36992;48.200;12.418;2024-03-29T00:12:17;1.50;;;0.45;;
50976;SDS011;36992;48.200;12.418;2024-03-29T00:14:42;3.17;;;0.80;;
50976;SDS011;36992;48.200;12.418;2024-03-29T00:17:08;1.60;;;0.60;;
50976;SDS011;36992;48.200;12.418;2024-03-29T00:19:34;1.92;;;0.60;;
50976;SDS011;36992;48.200;12.418;2024-03-29T00:21:59;1.63;;;0.45;;
50976;SDS011;36992;48.200;12.418;2024-03-29T00:24:26;1.75;;;0.80;;
50976;SDS011;36992;48.200;12.418;2024-03-29T00:26:52;2.42;;;0.85;;
50976;SDS011;36992;48.200;12.418;2024-03-29T00:29:18;1.70;;;0.60;;
50976;SDS011;36992;48.200;12.418;2024-03-29T00:31:43;1.52;;;0.50;;
50976;SDS011;36992;48.200;12.418;2024-03-29T00:34:09;1.75;;;0.50;;
50976;SDS011;36992;48.200;12.418;2024-03-29T00:36:34;3.70;;;0.70;;
50976;SDS011;36992;48.200;12.418;2024-03-29T00:39:00;0.90;;;0.30;;
50976;SDS011;36992;48.200;12.418;2024-03-29T00:41:27;1.83;;;0.57;;
50976;SDS011;36992;48.200;12.418;2024-03-29T00:43:53;1.55;;;0.40;;
50976;SDS011;36992;48.200;12.418;2024-03-29T00:46:18;0.95;;;0.40;;
50976;SDS011;36992;48.200;12.418;2024-03-29T00:48:44;1.02;;;0.50;;
50976;SDS011;36992;48.200;12.418;2024-03-29T00:51:09;1.38;;;0.45;;
50976;SDS011;36992;48.200;12.418;2024-03-29T00:53:35;1.10;;;0.45;;
50976;SDS011;36992;48.200;12.418;2024-03-29T00:56:01;2.22;;;0.40;;
50976;SDS011;36992;48.200;12.418;2024-03-29T00:58:27;2.03;;;0.73;;
50976;SDS011;36992;48.200;12.418;2024-03-29T01:00:54;1.88;;;0.75;;
50976;SDS011;36992;48.200;12.418;2024-03-29T01:03:19;1.08;;;0.50;;
50976;SDS011;36992;48.200;12.418;2024-03-29T01:05:45;1.20;;;0.40;;
50976;SDS011;36992;48.200;12.418;2024-03-29T01:08:11;1.42;;;0.40;;
50976;SDS011;36992;48.200;12.418;2024-03-29T01:10:36;1.40;;;0.43;;
50976;SDS011;36992;48.200;12.418;2024-03-29T01:13:02;1.40;;;0.50;;
50976;SDS011;36992;48.200;12.418;2024-03-29T01:15:29;2.88;;;0.52;;
50976;SDS011;36992;48.200;12.418;2024-03-29T01:17:55;0.90;;;0.20;;
50976;SDS011;36992;48.200;12.418;2024-03-29T01:20:20;0.90;;;0.30;;
50976;SDS011;36992;48.200;12.418;2024-03-29T01:22:46;1.33;;;0.40;;
50976;SDS011;36992;48.200;12.418;2024-03-29T01:25:11;0.90;;;0.38;;
50976;SDS011;36992;48.200;12.418;2024-03-29T01:27:37;1.88;;;0.82;;
50976;SDS011;36992;48.200;12.418;2024-03-29T01:30:03;1.05;;;0.63;;
50976;SDS011;36992;48.200;12.418;2024-03-29T01:32:31;0.43;;;0.17;;
50976;SDS011;36992;48.200;12.418;2024-03-29T01:34:56;2.60;;;0.30;;
50976;SDS011;36992;48.200;12.418;2024-03-29T01:37:22;1.10;;;0.45;;
50976;SDS011;36992;48.200;12.418;2024-03-29T01:39:47;1.45;;;0.40;;
50976;SDS011;36992;48.200;12.418;2024-03-29T01:42:13;1.75;;;0.40;;
50976;SDS011;36992;48.200;12.418;2024-03-29T01:44:39;1.10;;;0.20;;
50976;SDS011;36992;48.200;12.418;2024-03-29T01:47:05;0.85;;;0.30;;
50976;SDS011;36992;48.200;12.418;2024-03-29T01:49:33;0.70;;;0.20;;
50976;SDS011;36992;48.200;12.418;2024-03-29T01:52:00;0.40;;;0.20;;
50976;SDS011;36992;48.200;12.418;2024-03-29T01:54:28;0.80;;;0.30;;
50976;SDS011;36992;48.200;12.418;2024-03-29T01:56:55;0.88;;;0.28;;
50976;SDS011;36992;48.200;12.418;2024-03-29T01:59:22;0.70;;;0.20;;
50976;SDS011;36992;48.200;12.418;2024-03-29T02:01:48;0.85;;;0.20;;
50976;SDS011;36992;48.200;12.418;2024-03-29T02:04:15;0.20;;;0.10;;
50976;SDS011;36992;48.200;12.418;2024-03-29T02:06:43;1.65;;;0.90;;
50976;SDS011;36992;48.200;12.418;2024-03-29T02:09:09;0.32;;;0.10;;
50976;SDS011;36992;48.200;12.418;2024-03-29T02:11:36;0.55;;;0.10;;
50976;SDS011;36992;48.200;12.418;2024-03-29T02:14:02;0.17;;;0.08;;
50976;SDS011;36992;48.200;12.418;2024-03-29T02:16:31;0.30;;;0.10;;
50976;SDS011;36992;48.200;12.418;2024-03-29T02:18:57;0.38;;;0.10;;
50976;SDS011;36992;48.200;12.418;2024-03-29T02:21:23;0.30;;;0.10;;
50976;SDS011;36992;48.200;12.418;2024-03-29T02:23:57;0.20;;;0.10;;
50976;SDS011;36992;48.200;12.418;2024-03-29T02:26:26;0.73;;;0.10;;
50976;SDS011;36992;48.200;12.418;2024-03-29T02:28:56;1.02;;;0.10;;
50976;SDS011;36992;48.200;12.418;2024-03-29T02:31:23;0.20;;;0.00;;
50976;SDS011;36992;48.200;12.418;2024-03-29T02:33:49;0.40;;;0.03;;
50976;SDS011;36992;48.200;12.418;2024-03-29T02:36:16;1.00;;;0.17;;
50976;SDS011;36992;48.200;12.418;2024-03-29T02:38:42;0.30;;;0.10;;
50976;SDS011;36992;48.200;12.418;2024-03-29T02:41:10;0.10;;;0.10;;
50976;SDS011;36992;48.200;12.418;2024-03-29T02:43:35;0.20;;;0.00;;
50976;SDS011;36992;48.200;12.418;2024-03-29T02:46:02;1.10;;;0.10;;
50976;SDS011;36992;48.200;12.418;2024-03-29T02:48:28;0.50;;;0.13;;
50976;SDS011;36992;48.200;12.418;2024-03-29T02:50:55;0.50;;;0.10;;
50976;SDS011;36992;48.200;12.418;2024-03-29T02:53:20;0.25;;;0.10;;
50976;SDS011;36992;48.200;12.418;2024-03-29T02:55:47;0.20;;;0.10;;
50976;SDS011;36992;48.200;12.418;2024-03-29T02:58:14;0.20;;;0.10;;
50976;SDS011;36992;48.200;12.418;2024-03-29T03:00:40;0.00;;;0.00;;
50976;SDS011;36992;48.200;12.418;2024-03-29T03:03:06;0.35;;;0.10;;
50976;SDS011;36992;48.200;12.418;2024-03-29T03:05:32;2.03;;;0.10;;
50976;SDS011;36992;48.200;12.418;2024-03-29T03:07:58;0.35;;;0.00;;
50976;SDS011;36992;48.200;12.418;2024-03-29T03:10:47;0.08;;;0.00;;
50976;SDS011;36992;48.200;12.418;2024-03-29T03:13:25;0.52;;;0.03;;
50976;SDS011;36992;48.200;12.418;2024-03-29T03:15:52;0.10;;;0.00;;
50976;SDS011;36992;48.200;12.418;2024-03-29T03:18:19;0.20;;;0.00;;
50976;SDS011;36992;48.200;12.418;2024-03-29T03:20:49;0.35;;;0.00;;
50976;SDS011;36992;48.200;12.418;2024-03-29T03:23:15;0.20;;;0.10;;
50976;SDS011;36992;48.200;12.418;2024-03-29T03:25:42;0.22;;;0.00;;
50976;SDS011;36992;48.200;12.418;2024-03-29T03:28:07;0.20;;;0.00;;
50976;SDS011;36992;48.200;12.418;2024-03-29T03:30:38;0.10;;;0.05;;
50976;SDS011;36992;48.200;12.418;2024-03-29T03:33:04;0.57;;;0.10;;
50976;SDS011;36992;48.200;12.418;2024-03-29T03:35:31;1.17;;;0.10;;
50976;SDS011;36992;48.200;12.418;2024-03-29T03:37:56;0.20;;;0.10;;
50976;SDS011;36992;48.200;12.418;2024-03-29T03:40:23;0.35;;;0.05;;
50976;SDS011;36992;48.200;12.418;2024-03-29T03:42:49;0.32;;;0.10;;
50976;SDS011;36992;48.200;12.418;2024-03-29T03:45:14;0.30;;;0.15;;
50976;SDS011;36992;48.200;12.418;2024-03-29T03:47:42;0.20;;;0.00;;
50976;SDS011;36992;48.200;12.418;2024-03-29T03:50:08;0.10;;;0.00;;
50976;SDS011;36992;48.200;12.418;2024-03-29T03:52:35;0.50;;;0.10;;
50976;SDS011;36992;48.200;12.418;2024-03-29T03:55:00;0.30;;;0.10;;
50976;SDS011;36992;48.200;12.418;2024-03-29T03:57:27;0.10;;;0.00;;
50976;SDS011;36992;48.200;12.418;2024-03-29T03:59:52;0.15;;;0.00;;
50976;SDS011;36992;48.200;12.418;2024-03-29T04:02:19;0.25;;;0.10;;
50976;SDS011;36992;48.200;12.418;2024-03-29T04:04:47;0.10;;;0.00;;
50976;SDS011;36992;48.200;12.418;2024-03-29T04:07:14;0.10;;;0.10;;
50976;SDS011;36992;48.200;12.418;2024-03-29T04:09:39;0.13;;;0.00;;
50976;SDS011;36992;48.200;12.418;2024-03-29T04:12:06;0.50;;;0.10;;
50976;SDS011;36992;48.200;12.418;2024-03-29T04:14:32;0.20;;;0.00;;
50976;SDS011;36992;48.200;12.418;2024-03-29T04:16:58;0.10;;;0.00;;
50976;SDS011;36992;48.200;12.418;2024-03-29T04:19:24;0.32;;;0.10;;
50976;SDS011;36992;48.200;12.418;2024-03-29T04:21:53;0.22;;;0.10;;
50976;SDS011;36992;48.200;12.418;2024-03-29T04:24:18;0.00;;;0.00;;
50976;SDS011;36992;48.200;12.418;2024-03-29T04:26:45;0.10;;;0.00;;
50976;SDS011;36992;48.200;12.418;2024-03-29T04:29:12;0.20;;;0.00;;
50976;SDS011;36992;48.200;12.418;2024-03-29T04:31:39;0.00;;;0.00;;
50976;SDS011;36992;48.200;12.418;2024-03-29T04:34:05;0.10;;;0.00;;
50976;SDS011;36992;48.200;12.418;2024-03-29T04:36:31;0.30;;;0.00;;
50976;SDS011;36992;48.200;12.418;2024-03-29T04:38:58;0.10;;;0.00;;
50976;SDS011;36992;48.200;12.418;2024-03-29T04:41:25;0.13;;;0.00;;
50976;SDS011;36992;48.200;12.418;2024-03-29T04:43:51;0.08;;;0.00;;
50976;SDS011;36992;48.200;12.418;2024-03-29T04:46:17;0.17;;;0.00;;
50976;SDS011;36992;48.200;12.418;2024-03-29T04:48:44;0.10;;;0.00;;
50976;SDS011;36992;48.200;12.418;2024-03-29T04:51:11;0.00;;;0.00;;
50976;SDS011;36992;48.200;12.418;2024-03-29T04:53:38;0.10;;;0.00;;
50976;SDS011;36992;48.200;12.418;2024-03-29T04:56:07;0.20;;;0.05;;
50976;SDS011;36992;48.200;12.418;2024-03-29T04:58:33;0.00;;;0.00;;
50976;SDS011;36992;48.200;12.418;2024-03-29T05:01:00;0.08;;;0.00;;
50976;SDS011;36992;48.200;12.418;2024-03-29T05:03:26;0.10;;;0.00;;
50976;SDS011;36992;48.200;12.418;2024-03-29T05:05:53;0.55;;;0.00;;
50976;SDS011;36992;48.200;12.418;2024-03-29T05:08:20;0.13;;;0.00;;
50976;SDS011;36992;48.200;12.418;2024-03-29T05:10:47;0.70;;;0.10;;
50976;SDS011;36992;48.200;12.418;2024-03-29T05:13:16;0.00;;;0.00;;
50976;SDS011;36992;48.200;12.418;2024-03-29T05:15:43;1.55;;;0.00;;
50976;SDS011;36992;48.200;12.418;2024-03-29T05:18:10;0.65;;;0.52;;
50976;SDS011;36992;48.200;12.418;2024-03-29T05:20:37;0.05;;;0.00;;
50976;SDS011;36992;48.200;12.418;2024-03-29T05:23:04;0.85;;;0.08;;
50976;SDS011;36992;48.200;12.418;2024-03-29T05:25:31;0.30;;;0.10;;
50976;SDS011;36992;48.200;12.418;2024-03-29T05:27:57;1.77;;;0.10;;
50976;SDS011;36992;48.200;12.418;2024-03-29T05:30:25;1.45;;;0.08;;
50976;SDS011;36992;48.200;12.418;2024-03-29T05:32:53;0.10;;;0.00;;
50976;SDS011;36992;48.200;12.418;2024-03-29T05:35:20;0.00;;;0.00;;
50976;SDS011;36992;48.200;12.418;2024-03-29T05:37:46;0.35;;;0.03;;
50976;SDS011;36992;48.200;12.418;2024-03-29T05:40:16;0.68;;;0.10;;
50976;SDS011;36992;48.200;12.418;2024-03-29T05:42:42;0.17;;;0.10;;
50976;SDS011;36992;48.200;12.418;2024-03-29T05:47:54;0.60;;;0.10;;
50976;SDS011;36992;48.200;12.418;2024-03-29T05:50:22;0.52;;;0.10;;
50976;SDS011;36992;48.200;12.418;2024-03-29T05:52:49;0.38;;;0.10;;
50976;SDS011;36992;48.200;12.418;2024-03-29T05:55:16;0.20;;;0.10;;
50976;SDS011;36992;48.200;12.418;2024-03-29T05:57:44;0.03;;;0.00;;
50976;SDS011;36992;48.200;12.418;2024-03-29T06:00:11;0.10;;;0.00;;
50976;SDS011;36992;48.200;12.418;2024-03-29T06:02:41;0.10;;;0.00;;
50976;SDS011;36992;48.200;12.418;2024-03-29T06:05:09;0.10;;;0.10;;
50976;SDS011;36992;48.200;12.418;2024-03-29T06:07:36;0.10;;;0.00;;
50976;SDS011;36992;48.200;12.418;2024-03-29T06:10:03;6.40;;;0.20;;
50976;SDS011;36992;48.200;12.418;2024-03-29T06:12:31;0.25;;;0.10;;
50976;SDS011;36992;48.200;12.418;2024-03-29T06:14:58;0.60;;;0.10;;
50976;SDS011;36992;48.200;12.418;2024-03-29T06:17:43;0.20;;;0.03;;
50976;SDS011;36992;48.200;12.418;2024-03-29T06:20:10;0.30;;;0.10;;
50976;SDS011;36992;48.200;12.418;2024-03-29T06:22:37;0.95;;;0.45;;
50976;SDS011;36992;48.200;12.418;2024-03-29T06:25:04;0.30;;;0.10;;
50976;SDS011;36992;48.200;12.418;2024-03-29T06:27:31;0.20;;;0.03;;
50976;SDS011;36992;48.200;12.418;2024-03-29T06:29:58;1.30;;;0.10;;
50976;SDS011;36992;48.200;12.418;2024-03-29T06:32:24;0.30;;;0.10;;
50976;SDS011;36992;48.200;12.418;2024-03-29T06:34:52;1.05;;;0.20;;
50976;SDS011;36992;48.200;12.418;2024-03-29T06:37:19;0.38;;;0.10;;
50976;SDS011;36992;48.200;12.418;2024-03-29T06:39:46;0.25;;;0.10;;
50976;SDS011;36992;48.200;12.418;2024-03-29T06:42:13;0.08;;;0.00;;
50976;SDS011;36992;48.200;12.418;2024-03-29T06:44:40;0.38;;;0.00;;
50976;SDS011;36992;48.200;12.418;2024-03-29T06:47:07;0.20;;;0.03;;
50976;SDS011;36992;48.200;12.418;2024-03-29T06:49:34;0.20;;;0.10;;
50976;SDS011;36992;48.200;12.418;2024-03-29T06:52:02;0.40;;;0.10;;
50976;SDS011;36992;48.200;12.418;2024-03-29T06:54:29;0.30;;;0.10;;
50976;SDS011;36992;48.200;12.418;2024-03-29T06:56:57;0.20;;;0.00;;
50976;SDS011;36992;48.200;12.418;2024-03-29T06:59:24;0.30;;;0.00;;
50976;SDS011;36992;48.200;12.418;2024-03-29T07:01:51;0.00;;;0.00;;
50976;SDS011;36992;48.200;12.418;2024-03-29T07:04:18;0.38;;;0.05;;
50976;SDS011;36992;48.200;12.418;2024-03-29T07:06:45;0.10;;;0.00;;
50976;SDS011;36992;48.200;12.418;2024-03-29T07:09:17;0.55;;;0.10;;
50976;SDS011;36992;48.200;12.418;2024-03-29T07:11:45;0.93;;;0.10;;
50976;SDS011;36992;48.200;12.418;2024-03-29T07:14:11;1.58;;;0.03;;
50976;SDS011;36992;48.200;12.418;2024-03-29T07:16:38;0.22;;;0.03;;
50976;SDS011;36992;48.200;12.418;2024-03-29T07:19:04;0.20;;;0.10;;
50976;SDS011;36992;48.200;12.418;2024-03-29T07:21:31;0.52;;;0.03;;
50976;SDS011;36992;48.200;12.418;2024-03-29T07:23:57;0.05;;;0.00;;
50976;SDS011;36992;48.200;12.418;2024-03-29T07:26:25;0.20;;;0.00;;
50976;SDS011;36992;48.200;12.418;2024-03-29T07:28:52;0.20;;;0.10;;
50976;SDS011;36992;48.200;12.418;2024-03-29T07:31:18;0.00;;;0.00;;
50976;SDS011;36992;48.200;12.418;2024-03-29T07:33:45;0.08;;;0.00;;
50976;SDS011;36992;48.200;12.418;2024-03-29T07:36:11;0.20;;;0.10;;
50976;SDS011;36992;48.200;12.418;2024-03-29T07:38:38;0.30;;;0.10;;
50976;SDS011;36992;48.200;12.418;2024-03-29T07:41:03;0.25;;;0.00;;
50976;SDS011;36992;48.200;12.418;2024-03-29T07:43:38;0.50;;;0.10;;
50976;SDS011;36992;48.200;12.418;2024-03-29T07:46:05;0.10;;;0.10;;
50976;SDS011;36992;48.200;12.418;2024-03-29T07:48:33;0.38;;;0.10;;
50976;SDS011;36992;48.200;12.418;2024-03-29T07:51:00;0.40;;;0.10;;
50976;SDS011;36992;48.200;12.418;2024-03-29T07:53:27;0.75;;;0.10;;
50976;SDS011;36992;48.200;12.418;2024-03-29T07:55:53;0.15;;;0.00;;
50976;SDS011;36992;48.200;12.418;2024-03-29T07:58:20;0.30;;;0.10;;
50976;SDS011;36992;48.200;12.418;2024-03-29T08:00:48;1.17;;;0.50;;
50976;SDS011;36992;48.200;12.418;2024-03-29T08:03:14;0.30;;;0.00;;
50976;SDS011;36992;48.200;12.418;2024-03-29T08:05:41;0.47;;;0.17;;
50976;SDS011;36992;48.200;12.418;2024-03-29T08:08:07;0.05;;;0.00;;
50976;SDS011;36992;48.200;12.418;2024-03-29T08:10:34;0.10;;;0.00;;
50976;SDS011;36992;48.200;12.418;2024-03-29T08:13:00;1.23;;;0.00;;
50976;SDS011;36992;48.200;12.418;2024-03-29T08:15:27;0.00;;;0.00;;
50976;SDS011;36992;48.200;12.418;2024-03-29T08:17:55;0.20;;;0.10;;
50976;SDS011;36992;48.200;12.418;2024-03-29T08:20:21;0.30;;;0.05;;
50976;SDS011;36992;48.200;12.418;2024-03-29T08:22:54;0.35;;;0.10;;
50976;SDS011;36992;48.200;12.418;2024-03-29T08:25:23;0.30;;;0.00;;
50976;SDS011;36992;48.200;12.418;2024-03-29T08:27:52;0.30;;;0.10;;
50976;SDS011;36992;48.200;12.418;2024-03-29T08:30:23;0.22;;;0.00;;
50976;SDS011;36992;48.200;12.418;2024-03-29T08:32:50;0.38;;;0.00;;
50976;SDS011;36992;48.200;12.418;2024-03-29T08:35:19;0.30;;;0.00;;
50976;SDS011;36992;48.200;12.418;2024-03-29T08:37:45;0.30;;;0.08;;
50976;SDS011;36992;48.200;12.418;2024-03-29T08:40:12;0.15;;;0.00;;
50976;SDS011;36992;48.200;12.418;2024-03-29T08:42:38;0.13;;;0.00;;
50976;SDS011;36992;48.200;12.418;2024-03-29T08:45:05;0.45;;;0.00;;
50976;SDS011;36992;48.200;12.418;2024-03-29T08:47:33;0.30;;;0.10;;
50976;SDS011;36992;48.200;12.418;2024-03-29T08:49:58;0.32;;;0.00;;
50976;SDS011;36992;48.200;12.418;2024-03-29T08:52:26;0.40;;;0.00;;
50976;SDS011;36992;48.200;12.418;2024-03-29T08:54:53;0.22;;;0.00;;
50976;SDS011;36992;48.200;12.418;2024-03-29T08:57:20;1.25;;;0.28;;
50976;SDS011;36992;48.200;12.418;2024-03-29T08:59:45;0.60;;;0.10;;
50976;SDS011;36992;48.200;12.418;2024-03-29T09:02:12;0.05;;;0.00;;
50976;SDS011;36992;48.200;12.418;2024-03-29T09:04:39;0.32;;;0.10;;
50976;SDS011;36992;48.200;12.418;2024-03-29T09:07:09;0.52;;;0.00;;
50976;SDS011;36992;48.200;12.418;2024-03-29T09:09:37;0.10;;;0.00;;
50976;SDS011;36992;48.200;12.418;2024-03-29T09:12:06;0.43;;;0.00;;
50976;SDS011;36992;48.200;12.418;2024-03-29T09:14:33;0.63;;;0.00;;
50976;SDS011;36992;48.200;12.418;2024-03-29T09:17:00;1.40;;;0.08;;
50976;SDS011;36992;48.200;12.418;2024-03-29T09:19:27;0.30;;;0.05;;
50976;SDS011;36992;48.200;12.418;2024-03-29T09:21:55;0.57;;;0.20;;
50976;SDS011;36992;48.200;12.418;2024-03-29T09:24:22;0.47;;;0.10;;
50976;SDS011;36992;48.200;12.418;2024-03-29T09:26:52;0.60;;;0.10;;
50976;SDS011;36992;48.200;12.418;2024-03-29T09:29:18;0.17;;;0.00;;
50976;SDS011;36992;48.200;12.418;2024-03-29T09:31:45;0.13;;;0.00;;
50976;SDS011;36992;48.200;12.418;2024-03-29T09:34:12;0.10;;;0.00;;
50976;SDS011;36992;48.200;12.418;2024-03-29T09:36:39;0.08;;;0.00;;
50976;SDS011;36992;48.200;12.418;2024-03-29T09:39:06;0.20;;;0.00;;
50976;SDS011;36992;48.200;12.418;2024-03-29T09:41:33;0.20;;;0.00;;
50976;SDS011;36992;48.200;12.418;2024-03-29T09:44:04;0.55;;;0.08;;
50976;SDS011;36992;48.200;12.418;2024-03-29T09:46:33;0.10;;;0.00;;
50976;SDS011;36992;48.200;12.418;2024-03-29T09:48:59;0.38;;;0.10;;
50976;SDS011;36992;48.200;12.418;2024-03-29T09:51:28;0.03;;;0.00;;
50976;SDS011;36992;48.200;12.418;2024-03-29T09:53:55;0.68;;;0.00;;
50976;SDS011;36992;48.200;12.418;2024-03-29T09:56:25;1.25;;;0.82;;
50976;SDS011;36992;48.200;12.418;2024-03-29T09:58:52;0.10;;;0.00;;
50976;SDS011;36992;48.200;12.418;2024-03-29T10:01:20;0.17;;;0.00;;
50976;SDS011;36992;48.200;12.418;2024-03-29T10:03:49;0.25;;;0.10;;
50976;SDS011;36992;48.200;12.418;2024-03-29T10:06:16;0.17;;;0.00;;
50976;SDS011;36992;48.200;12.418;2024-03-29T10:08:45;0.50;;;0.00;;
50976;SDS011;36992;48.200;12.418;2024-03-29T10:11:12;0.52;;;0.10;;
50976;SDS011;36992;48.200;12.418;2024-03-29T10:13:41;0.25;;;0.10;;
50976;SDS011;36992;48.200;12.418;2024-03-29T10:16:08;0.35;;;0.10;;
50976;SDS011;36992;48.200;12.418;2024-03-29T10:18:37;0.30;;;0.08;;
50976;SDS011;36992;48.200;12.418;2024-03-29T10:21:06;0.10;;;0.00;;
50976;SDS011;36992;48.200;12.418;2024-03-29T10:23:34;0.08;;;0.00;;
50976;SDS011;36992;48.200;12.418;2024-03-29T10:26:02;0.40;;;0.10;;
50976;SDS011;36992;48.200;12.418;2024-03-29T10:28:30;0.32;;;0.03;;
50976;SDS011;36992;48.200;12.418;2024-03-29T10:30:58;0.10;;;0.00;;
50976;SDS011;36992;48.200;12.418;2024-03-29T10:33:27;0.13;;;0.00;;
50976;SDS011;36992;48.200;12.418;2024-03-29T10:35:55;0.45;;;0.00;;
50976;SDS011;36992;48.200;12.418;2024-03-29T10:38:24;1.02;;;0.10;;
50976;SDS011;36992;48.200;12.418;2024-03-29T10:40:51;0.35;;;0.10;;
50976;SDS011;36992;48.200;12.418;2024-03-29T10:43:18;0.50;;;0.10;;
50976;SDS011;36992;48.200;12.418;2024-03-29T10:45:46;0.20;;;0.00;;
50976;SDS011;36992;48.200;12.418;2024-03-29T10:48:15;0.65;;;0.03;;
50976;SDS011;36992;48.200;12.418;2024-03-29T10:50:43;0.47;;;0.00;;
50976;SDS011;36992;48.200;12.418;2024-03-29T10:53:13;0.52;;;0.00;;
50976;SDS011;36992;48.200;12.418;2024-03-29T10:55:40;0.57;;;0.03;;
50976;SDS011;36992;48.200;12.418;2024-03-29T10:58:08;0.22;;;0.00;;
50976;SDS011;36992;48.200;12.418;2024-03-29T11:00:37;0.47;;;0.15;;
50976;SDS011;36992;48.200;12.418;2024-03-29T11:03:09;0.80;;;0.20;;
50976;SDS011;36992;48.200;12.418;2024-03-29T11:05:41;1.27;;;0.10;;
50976;SDS011;36992;48.200;12.418;2024-03-29T11:08:12;1.83;;;0.30;;
50976;SDS011;36992;48.200;12.418;2024-03-29T11:10:44;0.52;;;0.20;;
50976;SDS011;36992;48.200;12.418;2024-03-29T11:13:16;2.30;;;0.47;;
50976;SDS011;36992;48.200;12.418;2024-03-29T11:15:50;1.10;;;0.40;;
50976;SDS011;36992;48.200;12.418;2024-03-29T11:18:17;1.45;;;0.40;;
50976;SDS011;36992;48.200;12.418;2024-03-29T11:20:45;1.08;;;0.30;;
50976;SDS011;36992;48.200;12.418;2024-03-29T11:23:17;0.30;;;0.10;;
50976;SDS011;36992;48.200;12.418;2024-03-29T11:25:46;0.45;;;0.10;;
50976;SDS011;36992;48.200;12.418;2024-03-29T11:28:16;0.30;;;0.10;;
50976;SDS011;36992;48.200;12.418;2024-03-29T11:30:51;1.08;;;0.10;;
50976;SDS011;36992;48.200;12.418;2024-03-29T11:33:28;0.45;;;0.10;;
50976;SDS011;36992;48.200;12.418;2024-03-29T11:35:56;0.30;;;0.10;;
50976;SDS011;36992;48.200;12.418;2024-03-29T11:38:32;0.82;;;0.30;;
50976;SDS011;36992;48.200;12.418;2024-03-29T11:41:01;0.35;;;0.00;;
50976;SDS011;36992;48.200;12.418;2024-03-29T11:43:31;0.50;;;0.10;;
50976;SDS011;36992;48.200;12.418;2024-03-29T11:45:59;0.05;;;0.00;;
50976;SDS011;36992;48.200;12.418;2024-03-29T11:48:27;0.17;;;0.00;;
50976;SDS011;36992;48.200;12.418;2024-03-29T11:50:56;1.63;;;0.65;;
50976;SDS011;36992;48.200;12.418;2024-03-29T11:53:23;0.32;;;0.00;;
50976;SDS011;36992;48.200;12.418;2024-03-29T11:55:51;0.55;;;0.10;;
50976;SDS011;36992;48.200;12.418;2024-03-29T11:58:20;2.08;;;0.17;;
50976;SDS011;36992;48.200;12.418;2024-03-29T12:00:47;0.30;;;0.10;;
50976;SDS011;36992;48.200;12.418;2024-03-29T12:03:14;1.75;;;0.80;;
50976;SDS011;36992;48.200;12.418;2024-03-29T12:05:41;0.40;;;0.10;;
50976;SDS011;36992;48.200;12.418;2024-03-29T12:08:08;0.20;;;0.10;;
50976;SDS011;36992;48.200;12.418;2024-03-29T12:10:35;0.10;;;0.00;;
50976;SDS011;36992;48.200;12.418;2024-03-29T12:13:04;0.22;;;0.10;;
50976;SDS011;36992;48.200;12.418;2024-03-29T12:15:31;0.43;;;0.00;;
50976;SDS011;36992;48.200;12.418;2024-03-29T12:17:58;0.88;;;0.10;;
50976;SDS011;36992;48.200;12.418;2024-03-29T12:20:26;0.10;;;0.00;;
50976;SDS011;36992;48.200;12.418;2024-03-29T12:22:56;0.15;;;0.00;;
50976;SDS011;36992;48.200;12.418;2024-03-29T12:25:25;0.00;;;0.00;;
50976;SDS011;36992;48.200;12.418;2024-03-29T12:27:52;0.40;;;0.00;;
50976;SDS011;36992;48.200;12.418;2024-03-29T12:30:20;0.10;;;0.00;;
50976;SDS011;36992;48.200;12.418;2024-03-29T12:32:47;0.20;;;0.00;;
50976;SDS011;36992;48.200;12.418;2024-03-29T12:35:14;0.63;;;0.10;;
50976;SDS011;36992;48.200;12.418;2024-03-29T12:37:47;0.10;;;0.00;;
50976;SDS011;36992;48.200;12.418;2024-03-29T12:40:15;0.65;;;0.05;;
50976;SDS011;36992;48.200;12.418;2024-03-29T12:42:50;0.17;;;0.00;;
50976;SDS011;36992;48.200;12.418;2024-03-29T12:45:17;0.17;;;0.00;;
50976;SDS011;36992;48.200;12.418;2024-03-29T12:47:46;0.30;;;0.00;;
50976;SDS011;36992;48.200;12.418;2024-03-29T12:50:14;0.13;;;0.00;;
50976;SDS011;36992;48.200;12.418;2024-03-29T12:52:53;0.10;;;0.00;;
50976;SDS011;36992;48.200;12.418;2024-03-29T12:55:21;0.30;;;0.00;;
50976;SDS011;36992;48.200;12.418;2024-03-29T12:57:48;0.35;;;0.00;;
50976;SDS011;36992;48.200;12.418;2024-03-29T13:00:15;0.10;;;0.00;;
50976;SDS011;36992;48.200;12.418;2024-03-29T13:02:41;0.00;;;0.00;;
50976;SDS011;36992;48.200;12.418;2024-03-29T13:05:09;0.10;;;0.00;;
50976;SDS011;36992;48.200;12.418;2024-03-29T13:07:36;0.35;;;0.00;;
50976;SDS011;36992;48.200;12.418;2024-03-29T13:10:03;0.43;;;0.00;;
50976;SDS011;36992;48.200;12.418;2024-03-29T13:12:35;0.10;;;0.00;;
50976;SDS011;36992;48.200;12.418;2024-03-29T13:15:14;0.70;;;0.00;;
50976;SDS011;36992;48.200;12.418;2024-03-29T13:17:41;0.20;;;0.00;;
50976;SDS011;36992;48.200;12.418;2024-03-29T13:20:11;0.00;;;0.00;;
50976;SDS011;36992;48.200;12.418;2024-03-29T13:22:38;0.13;;;0.00;;
50976;SDS011;36992;48.200;12.418;2024-03-29T13:25:07;0.10;;;0.00;;
50976;SDS011;36992;48.200;12.418;2024-03-29T13:27:35;0.17;;;0.00;;
50976;SDS011;36992;48.200;12.418;2024-03-29T13:30:02;0.10;;;0.00;;
50976;SDS011;36992;48.200;12.418;2024-03-29T13:32:29;0.20;;;0.00;;
50976;SDS011;36992;48.200;12.418;2024-03-29T13:34:57;0.10;;;0.00;;
50976;SDS011;36992;48.200;12.418;2024-03-29T13:37:26;0.10;;;0.00;;
50976;SDS011;36992;48.200;12.418;2024-03-29T13:39:52;0.00;;;0.00;;
50976;SDS011;36992;48.200;12.418;2024-03-29T13:42:19;0.35;;;0.00;;
50976;SDS011;36992;48.200;12.418;2024-03-29T13:44:46;0.00;;;0.00;;
50976;SDS011;36992;48.200;12.418;2024-03-29T13:47:12;0.00;;;0.00;;
50976;SDS011;36992;48.200;12.418;2024-03-29T13:49:41;0.45;;;0.00;;
50976;SDS011;36992;48.200;12.418;2024-03-29T13:52:08;0.00;;;0.00;;
50976;SDS011;36992;48.200;12.418;2024-03-29T13:54:36;0.00;;;0.00;;
50976;SDS011;36992;48.200;12.418;2024-03-29T13:57:03;0.05;;;0.00;;
50976;SDS011;36992;48.200;12.418;2024-03-29T13:59:29;0.00;;;0.00;;
50976;SDS011;36992;48.200;12.418;2024-03-29T14:01:56;0.10;;;0.00;;
50976;SDS011;36992;48.200;12.418;2024-03-29T14:04:22;0.10;;;0.00;;
50976;SDS011;36992;48.200;12.418;2024-03-29T14:06:49;0.03;;;0.00;;
50976;SDS011;36992;48.200;12.418;2024-03-29T14:09:16;0.35;;;0.00;;
50976;SDS011;36992;48.200;12.418;2024-03-29T14:11:44;5.47;;;0.90;;
50976;SDS011;36992;48.200;12.418;2024-03-29T14:14:11;0.20;;;0.00;;
50976;SDS011;36992;48.200;12.418;2024-03-29T14:16:38;0.00;;;0.00;;
50976;SDS011;36992;48.200;12.418;2024-03-29T14:19:04;0.10;;;0.00;;
50976;SDS011;36992;48.200;12.418;2024-03-29T14:21:31;0.20;;;0.00;;
50976;SDS011;36992;48.200;12.418;2024-03-29T14:23:57;0.00;;;0.00;;
50976;SDS011;36992;48.200;12.418;2024-03-29T14:26:24;0.00;;;0.00;;
50976;SDS011;36992;48.200;12.418;2024-03-29T14:28:52;0.15;;;0.00;;
50976;SDS011;36992;48.200;12.418;2024-03-29T14:31:18;0.45;;;0.00;;
50976;SDS011;36992;48.200;12.418;2024-03-29T14:33:46;0.30;;;0.00;;
50976;SDS011;36992;48.200;12.418;2024-03-29T14:36:13;0.20;;;0.00;;